Time;durP1;ratioP1;P1;durP2;ratioP2;P2;SDS_P1;SDS_P2;PMS_P1;PMS_P2;Temp;Humidity;BMP_temperature;BMP_pressure;BME280_temperature;BME280_humidity;BME280_pressure;Samples;Min_cycle;Max_cycle;Signal;HPM_P1;HPM_P2
2022/01/28 00:02:07;;;;;;;22.00;4.10;;;4.70;99.90;;;;;;5071739;28;20021;-83
2022/01/28 00:04:37;;;;;;;16.80;2.60;;;4.70;99.90;;;;;;5072322;28;20096;-83
2022/01/28 00:07:06;;;;;;;15.15;2.63;;;4.70;99.90;;;;;;5072337;28;20157;-83
2022/01/28 00:09:31;;;;;;;25.45;3.47;;;4.70;99.90;;;;;;5074762;28;20115;-83
2022/01/28 00:11:57;;;;;;;17.90;3.35;;;4.70;99.90;;;;;;5075862;28;20437;-83
2022/01/28 00:15:22;;;;;;;13.50;3.30;;;4.70;99.90;;;;;;5075751;28;20082;-83
2022/01/28 00:20:46;;;;;;;17.67;2.53;;;4.70;99.90;;;;;;5076111;28;20475;-83
2022/01/28 00:36:47;;;;;;;;;;;4.60;99.90;;;;;;5075921;28;20077;-83
2022/01/28 00:39:15;;;;;;;15.65;3.20;;;4.70;99.90;;;;;;5075707;28;19904;-84
2022/01/28 00:41:41;;;;;;;23.25;3.05;;;4.70;99.90;;;;;;5075101;28;20028;-84
2022/01/28 00:44:07;;;;;;;19.88;3.67;;;4.70;99.90;;;;;;5073962;28;20170;-84
2022/01/28 00:46:33;;;;;;;25.40;3.67;;;4.70;99.90;;;;;;5074742;28;20107;-83
2022/01/28 00:49:03;;;;;;;17.67;3.72;;;4.60;99.90;;;;;;5075110;28;20082;-83
2022/01/28 00:51:28;;;;;;;20.60;3.05;;;4.60;99.90;;;;;;5075095;28;20035;-82
2022/01/28 00:53:56;;;;;;;15.05;3.25;;;4.60;99.90;;;;;;5074981;28;20473;-83
2022/01/28 00:56:21;;;;;;;14.75;2.78;;;4.60;99.90;;;;;;5069554;28;20047;-83
2022/01/28 00:58:48;;;;;;;12.15;2.90;;;4.50;99.90;;;;;;5073800;28;20103;-83
2022/01/28 01:01:19;;;;;;;20.30;3.10;;;4.50;99.90;;;;;;5074429;28;20453;-83
2022/01/28 01:03:45;;;;;;;18.52;2.55;;;4.50;99.90;;;;;;5074672;28;20109;-83
2022/01/28 01:06:10;;;;;;;23.52;3.65;;;4.50;99.90;;;;;;5074819;28;20444;-83
2022/01/28 01:08:41;;;;;;;14.77;3.80;;;4.60;99.90;;;;;;5074689;28;20036;-84
2022/01/28 01:11:07;;;;;;;21.88;3.53;;;4.50;99.90;;;;;;5074622;28;20059;-83
2022/01/28 01:13:37;;;;;;;22.92;3.70;;;4.50;99.90;;;;;;5073251;28;20146;-83
2022/01/28 01:16:08;;;;;;;34.63;7.07;;;4.60;99.90;;;;;;5074212;28;20123;-82
2022/01/28 01:21:16;;;;;;;27.60;4.53;;;4.50;99.90;;;;;;5074926;28;20395;-83
2022/01/28 01:23:50;;;;;;;23.10;3.67;;;4.50;99.90;;;;;;5074562;28;20086;-83
2022/01/28 01:26:15;;;;;;;24.38;5.13;;;4.50;99.90;;;;;;5074311;28;20112;-84
2022/01/28 01:28:54;;;;;;;31.13;4.70;;;4.50;99.90;;;;;;5073103;28;20048;-83
2022/01/28 01:31:20;;;;;;;44.28;6.68;;;4.50;99.90;;;;;;5072813;28;20479;-83
2022/01/28 01:34:03;;;;;;;25.60;4.30;;;4.40;99.90;;;;;;5074313;28;20034;-83
2022/01/28 01:36:29;;;;;;;31.45;5.72;;;4.50;99.90;;;;;;5073750;28;20020;-82
2022/01/28 01:38:55;;;;;;;25.58;4.80;;;4.40;99.90;;;;;;5074221;28;20021;-83
2022/01/28 01:41:32;;;;;;;19.15;3.65;;;4.50;99.90;;;;;;5074256;28;20027;-82
2022/01/28 01:44:23;;;;;;;29.23;4.95;;;4.50;99.90;;;;;;5054027;28;20104;-82
2022/01/28 01:52:47;;;;;;;25.15;3.80;;;4.50;99.90;;;;;;5072992;28;20112;-83
2022/01/28 01:55:13;;;;;;;33.55;6.03;;;4.50;99.90;;;;;;5072267;28;20136;-83
2022/01/28 01:57:39;;;;;;;37.05;5.10;;;4.50;99.90;;;;;;5073729;28;20017;-82
2022/01/28 02:00:08;;;;;;;23.88;3.88;;;4.60;99.90;;;;;;5073838;28;20112;-83
2022/01/28 02:02:43;;;;;;;28.58;3.83;;;4.60;99.90;;;;;;5073450;28;20078;-83
2022/01/28 02:05:09;;;;;;;31.73;3.83;;;4.60;99.90;;;;;;5072287;28;20431;-82
2022/01/28 02:07:35;;;;;;;38.55;7.00;;;4.60;99.90;;;;;;5072428;28;20519;-82
2022/01/28 02:10:01;;;;;;;21.48;3.83;;;4.60;99.90;;;;;;5073521;28;20380;-83
2022/01/28 02:12:26;;;;;;;28.02;3.65;;;4.70;99.90;;;;;;5073458;28;20021;-82
2022/01/28 02:14:53;;;;;;;33.53;5.10;;;4.70;99.90;;;;;;5073114;28;20511;-83
2022/01/28 02:17:21;;;;;;;27.52;4.55;;;4.70;99.90;;;;;;5072177;28;20134;-83
2022/01/28 02:19:47;;;;;;;32.70;4.45;;;4.70;99.90;;;;;;5073376;28;20042;-82
2022/01/28 02:22:13;;;;;;;39.60;4.43;;;4.70;99.90;;;;;;5073296;28;20103;-83
2022/01/28 02:24:46;;;;;;;22.92;4.20;;;4.70;99.90;;;;;;5073451;28;20480;-83
2022/01/28 02:27:15;;;;;;;40.20;5.47;;;4.70;99.90;;;;;;5071922;28;20028;-84
2022/01/28 02:29:43;;;;;;;35.45;5.53;;;4.70;99.90;;;;;;5072942;28;20074;-83
2022/01/28 02:32:09;;;;;;;27.77;6.13;;;4.70;99.90;;;;;;5072375;28;20028;-83
2022/01/28 02:34:40;;;;;;;30.08;6.00;;;4.70;99.90;;;;;;5073080;28;20028;-84
2022/01/28 02:37:05;;;;;;;21.75;3.97;;;4.70;99.90;;;;;;5073035;28;20016;-82
2022/01/28 02:39:38;;;;;;;36.03;4.65;;;4.70;99.90;;;;;;5071899;28;20350;-83
2022/01/28 02:42:15;;;;;;;30.50;5.20;;;4.80;99.90;;;;;;5072692;28;20078;-83
2022/01/28 02:44:54;;;;;;;27.00;5.13;;;4.80;99.90;;;;;;5072568;28;20054;-82
2022/01/28 02:47:31;;;;;;;23.27;3.17;;;4.80;99.90;;;;;;5072869;28;20103;-83
2022/01/28 02:50:08;;;;;;;30.85;4.85;;;4.80;99.90;;;;;;5072639;28;20125;-83
2022/01/28 02:52:50;;;;;;;23.10;3.58;;;4.80;99.90;;;;;;5072949;28;20052;-83
2022/01/28 02:55:22;;;;;;;29.85;4.05;;;4.80;99.90;;;;;;5072640;28;20047;-83
2022/01/28 02:58:02;;;;;;;24.30;3.75;;;4.70;99.90;;;;;;5071569;28;20119;-82
2022/01/28 03:00:33;;;;;;;36.00;4.78;;;4.70;99.90;;;;;;5071959;28;20481;-82
2022/01/28 03:03:00;;;;;;;38.78;5.32;;;4.70;99.90;;;;;;5071233;28;20021;-83
2022/01/28 03:05:33;;;;;;;19.75;3.80;;;4.70;99.90;;;;;;5072803;28;20059;-83
2022/01/28 03:08:01;;;;;;;24.50;4.20;;;4.70;99.90;;;;;;5072491;28;20480;-83
2022/01/28 03:10:32;;;;;;;32.25;3.85;;;4.70;99.90;;;;;;5072797;28;20021;-83
2022/01/28 03:15:52;;;;;;;21.05;3.90;;;4.70;99.90;;;;;;5073035;28;20438;-82
2022/01/28 03:18:22;;;;;;;40.47;5.50;;;4.70;99.90;;;;;;5072651;28;20107;-82
2022/01/28 03:23:19;;;;;;;25.80;4.30;;;4.70;99.90;;;;;;5052827;28;20029;-83
2022/01/28 03:25:48;;;;;;;33.30;5.32;;;4.70;99.90;;;;;;5065347;28;20032;-83
2022/01/28 03:28:15;;;;;;;31.98;4.15;;;4.70;99.90;;;;;;5072441;28;20025;-83
2022/01/28 03:31:01;;;;;;;30.42;4.15;;;4.70;99.90;;;;;;5072061;28;20101;-82
2022/01/28 03:33:26;;;;;;;24.27;4.03;;;4.70;99.90;;;;;;5063440;28;20465;-83
2022/01/28 03:35:52;;;;;;;24.00;3.63;;;4.70;99.90;;;;;;5072457;28;20028;-83
2022/01/28 03:38:21;;;;;;;25.55;5.55;;;4.60;99.90;;;;;;5072382;28;20021;-83
2022/01/28 03:40:49;;;;;;;37.53;4.68;;;4.60;99.90;;;;;;5072395;28;20029;-83
2022/01/28 03:43:16;;;;;;;27.10;4.20;;;4.60;99.90;;;;;;5075184;28;20419;-83
2022/01/28 03:45:41;;;;;;;32.80;5.60;;;4.60;99.90;;;;;;5076031;28;20059;-83
2022/01/28 03:48:08;;;;;;;27.63;4.32;;;4.60;99.90;;;;;;5076468;28;20064;-83
2022/01/28 03:50:34;;;;;;;21.02;5.03;;;4.50;99.90;;;;;;5076260;28;20108;-83
2022/01/28 03:53:08;;;;;;;23.65;3.45;;;4.50;99.90;;;;;;5076189;28;20021;-83
2022/01/28 03:55:40;;;;;;;25.67;4.07;;;4.50;99.90;;;;;;5074786;28;20119;-83
2022/01/28 03:58:05;;;;;;;30.75;4.97;;;4.40;99.90;;;;;;5076296;28;20021;-83
2022/01/28 04:00:36;;;;;;;29.30;4.22;;;4.40;99.90;;;;;;5074481;28;20071;-83
2022/01/28 04:04:32;;;;;;;33.40;5.72;;;4.40;99.90;;;;;;5075935;28;20051;-83
2022/01/28 04:13:59;;;;;;;29.25;5.13;;;4.40;99.90;;;;;;5075710;28;20423;-82
2022/01/28 04:17:19;;;;;;;29.67;3.88;;;4.40;99.90;;;;;;5075610;28;20396;-84
2022/01/28 04:19:23;;;;;;;24.75;3.25;;;4.40;99.90;;;;;;5075879;28;20025;-83
2022/01/28 04:21:48;;;;;;;23.42;4.45;;;4.40;99.90;;;;;;5075665;28;20070;-82
2022/01/28 04:24:16;;;;;;;23.00;4.88;;;4.40;99.90;;;;;;5074346;28;20358;-83
2022/01/28 04:26:42;;;;;;;29.08;4.20;;;4.40;99.90;;;;;;5075628;28;20029;-82
2022/01/28 04:29:11;;;;;;;38.63;6.93;;;4.40;99.90;;;;;;5075332;28;20382;-83
2022/01/28 04:31:42;;;;;;;27.98;4.88;;;4.30;99.90;;;;;;5073536;28;20075;-83
2022/01/28 04:34:08;;;;;;;21.80;4.60;;;4.40;99.90;;;;;;5075116;28;20024;-82
2022/01/28 04:36:43;;;;;;;33.88;5.32;;;4.40;99.90;;;;;;5075263;28;20074;-82
2022/01/28 04:39:21;;;;;;;25.85;4.38;;;4.30;99.90;;;;;;5075070;28;20051;-82
2022/01/28 04:42:00;;;;;;;23.92;3.05;;;4.30;99.90;;;;;;5075402;28;20028;-82
2022/01/28 04:47:34;;;;;;;27.65;5.50;;;4.30;99.90;;;;;;5064423;28;20033;-82
2022/01/28 04:55:22;;;;;;;34.85;4.80;;;4.40;99.90;;;;;;5066022;28;20063;-82
2022/01/28 05:03:26;;;;;;;23.88;4.40;;;4.40;99.90;;;;;;5074999;28;20024;-83
2022/01/28 05:11:39;;;;;;;29.98;4.43;;;4.40;99.90;;;;;;5062169;28;20035;-83
2022/01/28 05:17:13;;;;;;;41.05;4.68;;;4.40;99.90;;;;;;5062984;28;20023;-83
2022/01/28 05:27:43;;;;;;;33.17;4.97;;;4.30;99.90;;;;;;5074701;28;20450;-83
2022/01/28 05:30:09;;;;;;;39.78;4.90;;;4.20;99.90;;;;;;5074477;28;20028;-84
2022/01/28 05:32:44;;;;;;;35.65;4.72;;;4.20;99.90;;;;;;5073196;28;20024;-83
2022/01/28 05:35:10;;;;;;;24.13;5.07;;;4.20;99.90;;;;;;5073631;28;20707;-82
2022/01/28 05:37:36;;;;;;;34.25;4.68;;;4.20;99.90;;;;;;5072102;28;20036;-83
2022/01/28 05:40:03;;;;;;;36.63;6.45;;;4.30;99.90;;;;;;5073984;28;20094;-83
2022/01/28 05:42:28;;;;;;;39.53;5.18;;;4.30;99.90;;;;;;5072547;28;20020;-83
2022/01/28 05:44:54;;;;;;;29.55;4.55;;;4.30;99.90;;;;;;5073907;28;20431;-83
2022/01/28 05:47:36;;;;;;;34.40;4.88;;;4.30;99.90;;;;;;5073674;28;20082;-83
2022/01/28 05:50:04;;;;;;;33.42;4.90;;;4.30;99.90;;;;;;5074162;28;20103;-83
2022/01/28 05:52:43;;;;;;;35.85;5.40;;;4.30;99.90;;;;;;5073554;28;20021;-82
2022/01/28 05:55:13;;;;;;;34.42;4.60;;;4.30;99.90;;;;;;5073401;28;20080;-83
2022/01/28 05:57:39;;;;;;;22.77;5.20;;;4.30;99.90;;;;;;5073540;28;20356;-83
2022/01/28 06:00:05;;;;;;;28.08;4.50;;;4.30;99.90;;;;;;5074015;28;20017;-83
2022/01/28 06:02:31;;;;;;;36.22;4.07;;;4.30;99.90;;;;;;5073193;28;20488;-82
2022/01/28 06:05:05;;;;;;;27.50;4.70;;;4.30;99.90;;;;;;5073380;28;20081;-83
2022/01/28 06:07:30;;;;;;;44.30;4.95;;;4.20;99.90;;;;;;5073555;28;20036;-83
2022/01/28 06:09:56;;;;;;;25.83;4.43;;;4.30;99.90;;;;;;5073475;28;20028;-83
2022/01/28 06:12:21;;;;;;;29.67;4.68;;;4.30;99.90;;;;;;5073401;28;20028;-83
2022/01/28 06:14:47;;;;;;;48.17;7.28;;;4.20;99.90;;;;;;5073358;28;20021;-83
2022/01/28 06:17:18;;;;;;;23.83;4.68;;;4.20;99.90;;;;;;5073096;28;20074;-83
2022/01/28 06:19:44;;;;;;;42.80;7.28;;;4.20;99.90;;;;;;5072079;28;20353;-84
2022/01/28 06:22:09;;;;;;;23.13;4.75;;;4.20;99.90;;;;;;5073270;28;20031;-84
2022/01/28 06:24:35;;;;;;;36.47;5.57;;;4.20;99.90;;;;;;5073283;28;20039;-84
2022/01/28 06:27:09;;;;;;;33.67;4.50;;;4.20;99.90;;;;;;5073179;28;20039;-83
2022/01/28 06:29:35;;;;;;;32.80;4.67;;;4.20;99.90;;;;;;5073245;28;20380;-83
2022/01/28 06:32:05;;;;;;;28.83;5.53;;;4.20;99.90;;;;;;5072387;28;20024;-83
2022/01/28 06:34:32;;;;;;;23.52;4.03;;;4.20;99.90;;;;;;5072647;28;20024;-83
2022/01/28 06:37:06;;;;;;;32.10;5.55;;;4.10;99.90;;;;;;5073201;28;20047;-83
2022/01/28 06:39:32;;;;;;;31.80;4.72;;;4.10;99.90;;;;;;5072840;28;20055;-82
2022/01/28 06:42:06;;;;;;;33.80;5.10;;;3.90;99.90;;;;;;5073058;28;20465;-83
2022/01/28 06:44:31;;;;;;;32.40;5.13;;;3.80;99.90;;;;;;5072499;28;20031;-83
2022/01/28 06:47:10;;;;;;;34.60;5.70;;;3.70;99.90;;;;;;5072600;28;20031;-84
2022/01/28 06:49:37;;;;;;;39.33;5.15;;;3.70;99.90;;;;;;5073024;28;20059;-83
2022/01/28 06:52:06;;;;;;;48.50;7.10;;;3.60;99.90;;;;;;5072744;28;20108;-83
2022/01/28 06:54:32;;;;;;;43.50;5.13;;;3.60;99.90;;;;;;5072609;28;20431;-83
2022/01/28 06:56:58;;;;;;;34.92;5.10;;;3.50;99.90;;;;;;5071561;28;20066;-84
2022/01/28 06:59:24;;;;;;;32.10;4.97;;;3.50;99.90;;;;;;5072845;28;20020;-84
2022/01/28 07:01:50;;;;;;;43.00;5.97;;;3.50;99.90;;;;;;5072335;28;20039;-83
2022/01/28 07:04:16;;;;;;;31.83;5.82;;;3.60;99.90;;;;;;5072739;28;20107;-83
2022/01/28 07:07:09;;;;;;;25.55;4.85;;;3.60;99.90;;;;;;5072660;28;20023;-84
2022/01/28 07:09:35;;;;;;;29.80;6.00;;;3.60;99.90;;;;;;5072791;28;20049;-83
2022/01/28 07:12:01;;;;;;;35.22;5.13;;;3.60;99.90;;;;;;5071541;28;20025;-84
2022/01/28 07:14:34;;;;;;;41.40;5.68;;;3.70;99.90;;;;;;5072725;28;20435;-83
2022/01/28 07:16:59;;;;;;;38.58;5.95;;;3.70;99.90;;;;;;5071789;28;20073;-83
2022/01/28 07:19:27;;;;;;;35.55;6.00;;;3.70;99.90;;;;;;5072417;28;20020;-83
2022/01/28 07:21:53;;;;;;;52.20;9.50;;;3.70;99.90;;;;;;5072163;28;20021;-82
2022/01/28 07:24:18;;;;;;;38.28;6.30;;;3.80;99.90;;;;;;5072409;28;20027;-83
2022/01/28 07:26:44;;;;;;;33.53;5.65;;;3.70;99.90;;;;;;5072521;28;20037;-83
2022/01/28 07:29:11;;;;;;;45.25;5.13;;;3.80;99.90;;;;;;5072278;28;20040;-83
2022/01/28 07:31:44;;;;;;;50.65;6.25;;;3.80;99.90;;;;;;5072325;28;20020;-83
2022/01/28 07:34:09;;;;;;;38.22;4.95;;;3.90;99.90;;;;;;5072329;28;20025;-83
2022/01/28 07:36:36;;;;;;;42.30;5.95;;;3.90;99.90;;;;;;5072560;28;20031;-83
2022/01/28 07:39:09;;;;;;;32.83;5.88;;;4.00;99.90;;;;;;5072469;28;20017;-84
2022/01/28 07:41:35;;;;;;;33.92;5.85;;;4.00;99.90;;;;;;5070710;28;20021;-82
2022/01/28 07:44:09;;;;;;;34.08;5.60;;;4.00;99.90;;;;;;5071990;28;20126;-83
2022/01/28 07:46:35;;;;;;;41.65;6.38;;;4.00;99.90;;;;;;5072185;28;20411;-83
2022/01/28 07:49:01;;;;;;;43.83;5.45;;;4.00;99.90;;;;;;5072314;28;20029;-82
2022/01/28 07:51:27;;;;;;;29.85;5.57;;;3.90;99.90;;;;;;5072284;28;20411;-82
2022/01/28 07:53:57;;;;;;;30.48;5.70;;;4.00;99.90;;;;;;5072039;28;20020;-83
2022/01/28 07:56:24;;;;;;;36.03;5.03;;;4.00;99.90;;;;;;5072252;28;20048;-82
2022/01/28 07:58:50;;;;;;;24.88;5.03;;;3.90;99.90;;;;;;5072202;28;20103;-83
2022/01/28 08:01:16;;;;;;;20.67;4.57;;;4.00;99.90;;;;;;5071024;28;20017;-83
2022/01/28 08:03:42;;;;;;;29.90;4.25;;;3.90;99.90;;;;;;5071064;28;20142;-82
2022/01/28 08:06:08;;;;;;;40.35;5.95;;;3.90;99.90;;;;;;5072058;28;20024;-82
2022/01/28 08:08:33;;;;;;;33.90;4.75;;;3.90;99.90;;;;;;5071904;28;20115;-82
2022/01/28 08:11:03;;;;;;;43.05;7.30;;;3.90;99.90;;;;;;5072067;28;20546;-83
2022/01/28 08:13:31;;;;;;;34.55;5.30;;;3.90;99.90;;;;;;5070812;28;20025;-83
2022/01/28 08:15:57;;;;;;;46.67;7.90;;;3.90;99.90;;;;;;5072007;28;20017;-83
2022/01/28 08:18:27;;;;;;;16.83;3.42;;;4.00;99.90;;;;;;5072381;28;20070;-82
2022/01/28 08:20:52;;;;;;;29.77;5.45;;;4.00;99.90;;;;;;5072562;28;20043;-82
2022/01/28 08:23:18;;;;;;;43.10;6.18;;;4.00;99.90;;;;;;5072099;28;20028;-82
2022/01/28 08:25:44;;;;;;;42.42;4.85;;;4.10;99.90;;;;;;5072138;28;20040;-82
2022/01/28 08:28:09;;;;;;;42.58;5.85;;;4.10;99.90;;;;;;5070738;28;20033;-83
2022/01/28 08:30:38;;;;;;;38.40;5.38;;;4.20;99.90;;;;;;5074994;28;20109;-83
2022/01/28 08:33:05;;;;;;;38.55;6.20;;;4.10;99.90;;;;;;5075460;28;20094;-83
2022/01/28 08:35:37;;;;;;;48.92;7.15;;;4.10;99.90;;;;;;5074042;28;20033;-83
2022/01/28 08:38:12;;;;;;;42.60;6.68;;;4.10;99.90;;;;;;5075478;28;20028;-82
2022/01/28 08:40:38;;;;;;;26.13;5.00;;;4.10;99.90;;;;;;5075439;28;20499;-83
2022/01/28 08:43:15;;;;;;;49.30;6.60;;;4.20;99.90;;;;;;5075198;28;20024;-82
2022/01/28 08:45:41;;;;;;;43.25;6.30;;;4.20;99.90;;;;;;5073816;28;20021;-82
2022/01/28 08:48:06;;;;;;;35.20;5.63;;;4.20;99.90;;;;;;5075280;28;20051;-83
2022/01/28 08:50:32;;;;;;;42.75;6.35;;;4.20;99.90;;;;;;5073704;28;20056;-82
2022/01/28 08:53:01;;;;;;;39.10;6.55;;;4.20;99.90;;;;;;5075035;28;20435;-83
2022/01/28 08:55:29;;;;;;;44.10;6.88;;;4.20;99.90;;;;;;5074948;28;20051;-83
2022/01/28 08:57:56;;;;;;;45.67;6.65;;;4.20;99.90;;;;;;5073707;28;20055;-82
2022/01/28 09:00:37;;;;;;;32.30;5.60;;;4.20;99.90;;;;;;5073590;28;20032;-82
2022/01/28 09:03:03;;;;;;;35.72;7.25;;;4.20;99.90;;;;;;5074850;28;20388;-82
2022/01/28 09:05:46;;;;;;;46.08;8.07;;;4.20;99.90;;;;;;5074824;28;20025;-83
2022/01/28 09:08:11;;;;;;;34.40;6.25;;;4.20;99.90;;;;;;5074909;28;20055;-83
2022/01/28 09:10:56;;;;;;;39.00;6.28;;;4.20;99.90;;;;;;5074823;28;20123;-83
2022/01/28 09:13:26;;;;;;;46.00;7.95;;;4.20;99.90;;;;;;5074626;28;20021;-83
2022/01/28 09:15:58;;;;;;;35.40;6.63;;;4.20;99.90;;;;;;5074473;28;20060;-82
2022/01/28 09:18:24;;;;;;;51.30;7.07;;;4.30;99.90;;;;;;5074615;28;20024;-83
2022/01/28 09:21:15;;;;;;;44.33;6.57;;;4.20;99.90;;;;;;5074551;28;20124;-82
2022/01/28 09:23:41;;;;;;;43.38;7.38;;;4.20;99.90;;;;;;5074926;28;20037;-83
2022/01/28 09:26:09;;;;;;;41.15;6.63;;;4.20;99.90;;;;;;5074556;28;20024;-82
2022/01/28 09:28:34;;;;;;;47.38;6.22;;;4.20;99.90;;;;;;5074336;28;20111;-82
2022/01/28 09:31:00;;;;;;;30.95;6.28;;;4.20;99.90;;;;;;5074438;28;20178;-83
2022/01/28 09:33:25;;;;;;;42.35;5.82;;;4.20;99.90;;;;;;5074167;28;20033;-82
2022/01/28 09:35:53;;;;;;;45.40;7.38;;;4.20;99.90;;;;;;5074427;28;20368;-82
2022/01/28 09:38:19;;;;;;;38.05;5.05;;;4.30;99.90;;;;;;5074296;28;20033;-82
2022/01/28 09:40:48;;;;;;;42.70;8.50;;;4.30;99.90;;;;;;5073917;28;20024;-82
2022/01/28 09:43:14;;;;;;;52.67;6.45;;;4.30;99.90;;;;;;5073862;28;20024;-82
2022/01/28 09:45:40;;;;;;;36.50;6.82;;;4.20;99.90;;;;;;5073916;28;20028;-83
2022/01/28 09:48:05;;;;;;;34.75;5.88;;;4.30;99.90;;;;;;5072856;28;20064;-83
2022/01/28 09:50:36;;;;;;;35.50;6.50;;;4.40;99.90;;;;;;5073979;28;20028;-82
2022/01/28 09:53:03;;;;;;;51.05;7.13;;;4.30;99.90;;;;;;5073762;28;20082;-83
2022/01/28 09:55:28;;;;;;;45.15;7.53;;;4.30;99.90;;;;;;5072681;28;20057;-82
2022/01/28 09:58:00;;;;;;;50.22;7.20;;;4.30;99.90;;;;;;5073830;28;20427;-83
2022/01/28 10:00:27;;;;;;;44.75;6.15;;;4.40;99.90;;;;;;5073421;28;20033;-83
2022/01/28 10:03:03;;;;;;;37.00;7.32;;;4.40;99.90;;;;;;5073556;28;20052;-83
2022/01/28 10:05:37;;;;;;;36.72;7.25;;;4.40;99.90;;;;;;5073921;28;20020;-83
2022/01/28 10:08:11;;;;;;;24.83;5.43;;;4.40;99.90;;;;;;5073336;28;20025;-82
2022/01/28 10:11:07;;;;;;;41.85;8.40;;;4.40;99.90;;;;;;5073569;28;20024;-82
2022/01/28 10:13:41;;;;;;;42.95;7.15;;;4.40;99.90;;;;;;5071694;28;20036;-82
2022/01/28 10:16:12;;;;;;;55.67;6.28;;;4.40;99.90;;;;;;5073187;28;20146;-83
2022/01/28 10:18:50;;;;;;;47.42;6.13;;;4.50;99.90;;;;;;5071976;28;20473;-83
2022/01/28 10:21:16;;;;;;;48.67;8.63;;;4.50;99.90;;;;;;5071097;28;20042;-83
2022/01/28 10:24:02;;;;;;;50.45;6.88;;;4.50;99.90;;;;;;5071272;28;20123;-82
2022/01/28 10:26:29;;;;;;;34.78;6.00;;;4.50;99.90;;;;;;5073158;28;20038;-83
2022/01/28 10:28:54;;;;;;;34.75;7.53;;;4.50;99.90;;;;;;5073281;28;20024;-83
2022/01/28 10:31:20;;;;;;;48.88;8.85;;;4.60;99.90;;;;;;5071542;28;20046;-82
2022/01/28 10:33:50;;;;;;;43.97;6.00;;;4.60;99.90;;;;;;5072887;28;20039;-83
2022/01/28 10:36:24;;;;;;;49.83;6.78;;;4.70;99.90;;;;;;5072927;28;20358;-83
2022/01/28 10:38:57;;;;;;;46.63;6.15;;;4.70;99.90;;;;;;5073202;28;20020;-82
2022/01/28 10:41:27;;;;;;;49.35;9.40;;;4.80;99.90;;;;;;5072906;28;20016;-82
2022/01/28 10:43:57;;;;;;;40.58;5.85;;;4.80;99.90;;;;;;5072819;28;20107;-83
2022/01/28 10:46:30;;;;;;;44.80;5.75;;;4.80;99.90;;;;;;5072766;28;20095;-83
2022/01/28 10:49:03;;;;;;;45.80;6.07;;;4.80;99.90;;;;;;5072838;28;20141;-83
2022/01/28 10:51:51;;;;;;;33.63;6.35;;;4.90;99.90;;;;;;5072072;28;20074;-82
2022/01/28 10:54:22;;;;;;;45.40;6.22;;;4.90;99.90;;;;;;5071217;28;20024;-83
2022/01/28 10:56:55;;;;;;;36.17;6.15;;;4.90;99.90;;;;;;5072855;28;20373;-82
2022/01/28 10:59:33;;;;;;;31.85;6.18;;;5.00;99.90;;;;;;5072352;28;20051;-82
2022/01/28 11:01:59;;;;;;;44.42;6.90;;;5.00;99.90;;;;;;5072710;28;20020;-83
2022/01/28 11:04:27;;;;;;;57.13;7.50;;;5.00;99.90;;;;;;5072686;28;20028;-82
2022/01/28 11:06:58;;;;;;;54.15;7.40;;;5.00;99.90;;;;;;5072873;28;20031;-82
2022/01/28 11:09:25;;;;;;;54.90;6.85;;;5.10;99.90;;;;;;5072619;28;20071;-83
2022/01/28 11:11:51;;;;;;;35.42;5.15;;;5.10;99.90;;;;;;5072771;28;20036;-83
2022/01/28 11:14:18;;;;;;;33.55;6.45;;;5.00;99.90;;;;;;5072252;28;20032;-82
2022/01/28 11:16:44;;;;;;;45.58;5.88;;;5.10;99.90;;;;;;5072677;28;20021;-82
2022/01/28 11:19:13;;;;;;;33.70;5.68;;;5.10;99.90;;;;;;5072463;28;20318;-82
2022/01/28 11:22:17;;;;;;;50.80;10.27;;;5.00;99.90;;;;;;5071955;28;20021;-82
2022/01/28 11:25:01;;;;;;;34.97;4.90;;;5.00;99.90;;;;;;5071013;28;20060;-82
2022/01/28 11:27:33;;;;;;;51.42;7.60;;;5.00;99.90;;;;;;5072419;28;20031;-83
2022/01/28 11:30:15;;;;;;;35.75;6.25;;;5.00;99.90;;;;;;5051822;28;20132;-82
2022/01/28 11:32:54;;;;;;;36.40;6.20;;;4.90;99.90;;;;;;5051572;28;20028;-83
2022/01/28 11:35:21;;;;;;;45.55;6.55;;;4.90;99.90;;;;;;5070826;28;20115;-83
2022/01/28 11:37:47;;;;;;;37.97;5.93;;;4.90;99.90;;;;;;5072290;28;20025;-83
2022/01/28 11:40:16;;;;;;;54.22;6.90;;;5.00;99.90;;;;;;5072440;28;20033;-83
2022/01/28 11:42:42;;;;;;;36.55;4.68;;;4.90;99.90;;;;;;5071004;28;20017;-82
2022/01/28 11:45:11;;;;;;;51.28;6.97;;;5.00;99.90;;;;;;5071978;28;20036;-83
2022/01/28 11:47:57;;;;;;;30.05;6.40;;;4.90;99.90;;;;;;5070841;28;20060;-82
2022/01/28 11:50:23;;;;;;;;;;;5.00;99.90;;;;;;5072862;28;20040;-83
2022/01/28 11:53:00;;;;;;;46.38;6.20;;;5.00;99.90;;;;;;5070994;28;19958;-83
2022/01/28 11:55:31;;;;;;;41.90;5.20;;;5.00;99.90;;;;;;5072052;28;20040;-82
2022/01/28 11:58:12;;;;;;;42.45;6.88;;;5.10;99.90;;;;;;5072271;28;20460;-83
2022/01/28 12:00:49;;;;;;;43.72;6.30;;;5.10;99.90;;;;;;5071971;28;20021;-83
2022/01/28 12:03:21;;;;;;;56.65;6.38;;;5.10;99.90;;;;;;5072700;28;20111;-83
2022/01/28 12:05:46;;;;;;;45.40;6.32;;;5.10;99.90;;;;;;5075860;28;20032;-83
2022/01/28 12:08:14;;;;;;;42.85;5.80;;;5.10;99.90;;;;;;5076018;28;20649;-83
2022/01/28 12:10:44;;;;;;;51.20;5.97;;;5.10;99.90;;;;;;5076020;28;20021;-83
2022/01/28 12:13:13;;;;;;;39.40;5.47;;;5.10;99.90;;;;;;5075789;28;20066;-83
2022/01/28 12:15:59;;;;;;;42.75;6.40;;;5.10;99.90;;;;;;5075711;28;20017;-83
2022/01/28 12:18:49;;;;;;;37.60;5.20;;;5.20;99.90;;;;;;5074803;28;20020;-83
2022/01/28 12:21:16;;;;;;;34.38;5.65;;;5.20;99.90;;;;;;5075279;28;20033;-83
2022/01/28 12:23:44;;;;;;;47.92;6.50;;;5.20;99.90;;;;;;5074326;28;20047;-83
2022/01/28 12:26:16;;;;;;;37.70;6.60;;;5.20;99.90;;;;;;5075978;28;20372;-82
2022/01/28 12:28:48;;;;;;;47.78;7.45;;;5.10;99.90;;;;;;5074213;28;20115;-82
2022/01/28 12:31:19;;;;;;;53.53;7.13;;;5.10;99.90;;;;;;5075324;28;20035;-83
2022/01/28 12:33:48;;;;;;;33.92;5.90;;;5.00;99.90;;;;;;5074239;28;20464;-83
2022/01/28 12:36:30;;;;;;;40.67;5.75;;;5.10;99.90;;;;;;5075371;28;20503;-83
2022/01/28 12:39:11;;;;;;;40.10;6.70;;;5.10;99.90;;;;;;5075506;28;20423;-83
2022/01/28 12:41:49;;;;;;;43.17;6.75;;;5.10;99.90;;;;;;5075355;28;20021;-83
2022/01/28 12:44:16;;;;;;;41.58;6.25;;;5.20;99.90;;;;;;5074929;28;20411;-83
2022/01/28 12:46:54;;;;;;;44.50;6.25;;;5.20;99.90;;;;;;5075235;28;20039;-83
2022/01/28 12:49:27;;;;;;;36.88;6.47;;;5.20;99.90;;;;;;5075261;28;20028;-84
2022/01/28 12:52:01;;;;;;;41.30;6.45;;;5.30;99.90;;;;;;5074950;28;20032;-83
2022/01/28 12:54:37;;;;;;;42.72;6.15;;;5.30;99.90;;;;;;5074853;28;20029;-83
2022/01/28 12:57:03;;;;;;;37.22;5.82;;;5.30;99.90;;;;;;5073866;28;20036;-83
2022/01/28 12:59:30;;;;;;;37.08;6.22;;;5.40;99.90;;;;;;5074599;28;20020;-83
2022/01/28 13:01:56;;;;;;;43.08;7.22;;;5.40;99.90;;;;;;5072623;28;20032;-83
2022/01/28 13:04:35;;;;;;;37.42;5.45;;;5.40;99.90;;;;;;5072748;28;20124;-82
2022/01/28 13:08:24;;;;;;;36.05;6.05;;;5.40;99.90;;;;;;5074420;28;20025;-83
2022/01/28 13:09:48;;;;;;;37.95;6.28;;;5.30;99.90;;;;;;5073683;28;20039;-83
2022/01/28 13:12:22;;;;;;;37.55;5.13;;;5.40;99.90;;;;;;5074263;28;20028;-83
2022/01/28 13:14:48;;;;;;;45.33;5.30;;;5.40;99.90;;;;;;5073516;28;20039;-83
2022/01/28 13:17:18;;;;;;;49.75;6.80;;;5.40;99.90;;;;;;5072994;28;20028;-83
2022/01/28 13:19:56;;;;;;;37.92;4.68;;;5.50;99.90;;;;;;5060889;28;20035;-83
2022/01/28 13:22:27;;;;;;;32.60;4.65;;;5.50;99.90;;;;;;5074053;28;20115;-82
2022/01/28 13:24:59;;;;;;;61.97;7.13;;;5.60;99.90;;;;;;5072984;28;20032;-83
2022/01/28 13:27:39;;;;;;;47.10;6.70;;;5.50;99.90;;;;;;5074321;28;20461;-83
2022/01/28 13:30:14;;;;;;;44.38;6.63;;;5.50;99.90;;;;;;5068340;28;20139;-84
2022/01/28 13:32:43;;;;;;;33.30;5.47;;;5.50;99.90;;;;;;5073075;28;20032;-87
2022/01/28 13:35:26;;;;;;;34.65;5.20;;;5.50;99.90;;;;;;5074270;28;20416;-86
2022/01/28 13:37:57;;;;;;;45.17;6.45;;;5.50;99.90;;;;;;5074078;28;20096;-83
2022/01/28 13:40:29;;;;;;;38.33;5.47;;;5.50;99.90;;;;;;5073289;28;20031;-85
2022/01/28 13:43:25;;;;;;;33.90;5.90;;;5.60;99.90;;;;;;5073720;28;20495;-83
2022/01/28 13:45:58;;;;;;;45.42;6.28;;;5.60;99.90;;;;;;5053761;28;20021;-83
2022/01/28 13:48:34;;;;;;;26.58;4.88;;;5.50;99.90;;;;;;5053998;28;20035;-83
2022/01/28 13:51:06;;;;;;;39.33;7.80;;;5.50;99.90;;;;;;5069575;28;20373;-84
2022/01/28 13:56:43;;;;;;;44.03;5.65;;;5.40;99.90;;;;;;5060849;28;20029;-83
2022/01/28 13:59:14;;;;;;;40.00;6.55;;;5.40;99.90;;;;;;5072023;28;20024;-84
2022/01/28 14:01:52;;;;;;;43.50;7.43;;;5.30;99.90;;;;;;5073153;28;20031;-84
2022/01/28 14:04:23;;;;;;;49.65;6.25;;;5.40;99.90;;;;;;5073351;28;20512;-86
2022/01/28 14:06:48;;;;;;;44.10;7.57;;;5.40;99.90;;;;;;5073482;28;20373;-85
2022/01/28 14:09:19;;;;;;;40.30;5.95;;;5.30;99.90;;;;;;5073157;28;20036;-85
2022/01/28 14:11:49;;;;;;;47.80;7.03;;;5.30;99.90;;;;;;5073306;28;20025;-84
2022/01/28 14:17:18;;;;;;;37.63;5.95;;;5.30;99.90;;;;;;5073631;28;20381;-87
2022/01/28 14:19:44;;;;;;;36.90;5.53;;;5.20;99.90;;;;;;5073737;28;20031;-85
2022/01/28 14:22:12;;;;;;;32.30;4.85;;;5.20;99.90;;;;;;5071987;28;20024;-85